Sterling, Idaho
Current Conditions -  °F | °C
As of 7:53 AM on Sunday 21 Dec 2014 (Local Time) from KPIH Reporting Station
Overcast Overcast  
Wind Chill: 34°   Ceiling: 1200
Heat Index: 43°   Visibility: 10mi
Dew Point: 41°   Wind: 23mph
Humidity: 93%   Direction: 230°SW
Pressure: 29.81"   Gusts: 35mph
Location:  43.1849°N, 112.825°W
Report Text: KPIH 211453Z 23020G30KT 10SM OVC012 06/05 A2981 RMK AO2 PK WND 22030/1404 SLP095 60000 T00610050 55002
Loading
Personal Weather Stations






























Interactive Weather Map New forecast layout! Learn more

10-Day Weather Forecast

Advertisements
Track Severe Weather on mobile